Time;durP1;ratioP1;P1;durP2;ratioP2;P2;SDS_P1;SDS_P2;PMS_P1;PMS_P2;Temp;Humidity;BMP_temperature;BMP_pressure;BME280_temperature;BME280_humidity;BME280_pressure;Samples;Min_cycle;Max_cycle;Signal;HPM_P1;HPM_P2
2022/07/20 00:01:58;;;;;;;15.70;7.63;;;;;;;19.76;100.00;100502.63;5062914;28;20031;-47
2022/07/20 00:04:23;;;;;;;12.23;7.43;;;;;;;19.64;100.00;100514.53;5052279;28;20404;-50
2022/07/20 00:06:49;;;;;;;8.20;6.22;;;;;;;19.53;100.00;100505.53;5056247;28;20035;-43
2022/07/20 00:11:58;;;;;;;16.10;7.25;;;;;;;19.48;100.00;100498.22;5062698;28;20117;-47
2022/07/20 00:14:24;;;;;;;15.55;6.72;;;;;;;19.50;100.00;100511.41;5055391;28;20032;-46
2022/07/20 00:16:49;;;;;;;11.65;5.78;;;;;;;19.48;100.00;100506.28;5053205;28;20021;-45
2022/07/20 00:19:15;;;;;;;12.35;6.60;;;;;;;19.49;100.00;100516.00;5054723;28;20036;-49
2022/07/20 00:21:40;;;;;;;12.63;7.30;;;;;;;19.45;100.00;100514.84;5052297;28;20029;-45
2022/07/20 00:24:06;;;;;;;9.10;5.35;;;;;;;19.42;100.00;100525.31;5061582;28;20035;-50
2022/07/20 00:26:31;;;;;;;9.60;6.00;;;;;;;19.43;100.00;100516.16;5034469;28;20398;-47
2022/07/20 00:28:57;;;;;;;15.75;6.28;;;;;;;19.40;100.00;100507.53;5055152;28;20053;-45
2022/07/20 00:31:22;;;;;;;12.50;6.25;;;;;;;19.31;100.00;100505.50;5059994;28;20461;-46
2022/07/20 00:33:48;;;;;;;6.85;5.30;;;;;;;19.29;100.00;100502.28;5061461;28;20393;-47
2022/07/20 00:36:18;;;;;;;14.52;6.30;;;;;;;19.30;100.00;100511.97;5061758;28;20063;-46
2022/07/20 00:38:44;;;;;;;10.80;5.40;;;;;;;19.33;100.00;100528.38;5048237;28;20441;-48
2022/07/20 00:41:10;;;;;;;10.10;6.05;;;;;;;19.33;100.00;100523.00;5066736;28;20104;-43
2022/07/20 00:43:55;;;;;;;11.55;6.85;;;;;;;19.31;100.00;100516.25;5063703;28;20028;-47
2022/07/20 00:46:21;;;;;;;12.38;6.40;;;;;;;19.32;100.00;100510.66;5067855;28;20469;-50
2022/07/20 00:48:47;;;;;;;8.32;5.65;;;;;;;19.34;100.00;100505.84;5055740;28;20029;-49
2022/07/20 00:51:12;;;;;;;11.35;6.00;;;;;;;19.30;100.00;100507.38;5063509;28;20697;-47
2022/07/20 00:53:38;;;;;;;14.10;6.07;;;;;;;19.29;100.00;100510.34;5055074;28;20028;-49
2022/07/20 00:56:04;;;;;;;14.18;5.55;;;;;;;19.26;100.00;100510.81;5060320;28;20568;-44
2022/07/20 00:58:30;;;;;;;11.88;5.63;;;;;;;19.27;100.00;100505.19;5075451;28;20116;-45
2022/07/20 01:00:55;;;;;;;10.18;5.78;;;;;;;19.34;100.00;100511.22;5047398;28;20115;-48
2022/07/20 01:03:20;;;;;;;11.73;6.70;;;;;;;19.38;100.00;100509.66;5060253;28;20028;-47
2022/07/20 01:05:46;;;;;;;10.35;5.57;;;;;;;19.41;100.00;100505.66;5062330;28;20643;-44
2022/07/20 01:08:11;;;;;;;11.57;6.18;;;;;;;19.51;100.00;100518.41;5074469;28;20045;-44
2022/07/20 01:10:37;;;;;;;8.23;6.40;;;;;;;19.58;100.00;100513.66;5072767;28;20043;-51
2022/07/20 01:13:03;;;;;;;11.10;6.32;;;;;;;19.61;100.00;100518.53;5069045;28;20024;-51
2022/07/20 01:15:29;;;;;;;13.25;6.57;;;;;;;19.58;100.00;100527.13;5067518;28;20389;-48
2022/07/20 01:17:54;;;;;;;12.77;7.15;;;;;;;19.52;100.00;100534.31;5076097;28;20032;-44
2022/07/20 01:20:23;;;;;;;8.88;6.70;;;;;;;19.52;100.00;100531.63;5068187;28;20032;-48
2022/07/20 01:22:49;;;;;;;11.93;6.50;;;;;;;19.50;100.00;100525.69;5064770;28;20078;-51
2022/07/20 01:25:15;;;;;;;11.02;6.20;;;;;;;19.50;100.00;100519.50;5070114;28;20036;-50
2022/07/20 01:27:40;;;;;;;16.30;7.85;;;;;;;19.49;100.00;100537.50;5068230;28;20377;-51
2022/07/20 01:30:06;;;;;;;18.92;7.03;;;;;;;19.43;100.00;100537.66;5055019;28;20028;-47
2022/07/20 01:32:32;;;;;;;15.23;7.32;;;;;;;19.44;100.00;100539.28;5071356;28;20020;-50
2022/07/20 01:34:57;;;;;;;17.13;6.47;;;;;;;19.39;100.00;100530.09;5055880;28;20040;-47
2022/07/20 01:37:23;;;;;;;11.10;6.55;;;;;;;19.42;100.00;100530.69;5068253;28;20032;-48
2022/07/20 01:39:48;;;;;;;11.65;6.93;;;;;;;19.40;100.00;100533.59;5074526;28;20028;-49
2022/07/20 01:42:13;;;;;;;12.95;6.68;;;;;;;19.37;100.00;100545.66;5052966;28;20382;-48
2022/07/20 01:44:39;;;;;;;13.05;8.05;;;;;;;19.32;100.00;100532.16;5068234;28;20103;-48
2022/07/20 01:47:04;;;;;;;10.93;6.78;;;;;;;19.35;100.00;100531.66;5066873;28;20078;-46
2022/07/20 01:49:30;;;;;;;13.82;7.38;;;;;;;19.33;100.00;100532.97;5068618;28;20073;-50
2022/07/20 01:51:55;;;;;;;11.18;7.65;;;;;;;19.32;100.00;100532.16;5042046;28;20036;-45
2022/07/20 01:54:21;;;;;;;10.07;6.38;;;;;;;19.26;100.00;100527.78;5057176;28;20415;-46
2022/07/20 01:56:46;;;;;;;17.98;6.93;;;;;;;19.22;100.00;100523.13;5072582;28;20020;-47
2022/07/20 01:59:11;;;;;;;14.35;7.32;;;;;;;19.23;100.00;100527.44;5069720;28;20103;-53
2022/07/20 02:01:38;;;;;;;8.45;6.25;;;;;;;19.26;100.00;100522.41;5060417;28;20036;-47
2022/07/20 02:04:04;;;;;;;10.35;7.43;;;;;;;19.22;100.00;100517.75;5055554;28;20773;-47
2022/07/20 02:06:30;;;;;;;13.60;7.65;;;;;;;19.21;100.00;100519.63;5061396;28;20049;-50
2022/07/20 02:08:55;;;;;;;13.13;7.82;;;;;;;19.26;100.00;100524.25;5060963;28;20056;-46
2022/07/20 02:11:21;;;;;;;18.48;7.40;;;;;;;19.24;100.00;100513.75;5044903;28;20136;-47
2022/07/20 02:13:46;;;;;;;12.75;7.03;;;;;;;19.21;100.00;100525.03;5065154;28;20138;-48
2022/07/20 02:16:15;;;;;;;19.13;8.00;;;;;;;19.22;100.00;100520.44;5065497;28;20126;-51
2022/07/20 02:18:45;;;;;;;16.02;8.60;;;;;;;19.24;100.00;100507.59;5071510;28;20087;-47
2022/07/20 02:21:10;;;;;;;13.30;7.78;;;;;;;19.23;100.00;100514.81;5057409;28;20107;-51
2022/07/20 02:23:36;;;;;;;20.33;8.45;;;;;;;19.13;100.00;100512.00;5064565;28;20565;-54
2022/07/20 02:26:02;;;;;;;16.60;7.85;;;;;;;19.14;100.00;100519.00;5063015;28;20028;-47
2022/07/20 02:28:28;;;;;;;17.20;9.02;;;;;;;19.04;100.00;100506.22;5044350;28;20024;-47
2022/07/20 02:30:53;;;;;;;18.27;9.23;;;;;;;19.07;100.00;100507.59;5064617;28;20407;-45
2022/07/20 02:33:19;;;;;;;9.50;6.40;;;;;;;19.12;100.00;100508.47;5057919;28;20029;-47
2022/07/20 02:35:44;;;;;;;12.93;6.47;;;;;;;19.19;100.00;100505.63;5059880;28;20122;-42
2022/07/20 02:38:09;;;;;;;20.88;8.32;;;;;;;19.17;100.00;100505.06;5056497;28;20046;-51
2022/07/20 02:40:35;;;;;;;16.25;7.00;;;;;;;19.17;100.00;100497.00;5066161;28;20039;-48
2022/07/20 02:43:00;;;;;;;12.60;6.85;;;;;;;19.20;100.00;100490.31;5062946;28;20060;-46
2022/07/20 02:45:26;;;;;;;14.63;8.27;;;;;;;19.22;100.00;100504.31;5062216;28;20035;-50
2022/07/20 02:47:51;;;;;;;17.38;7.45;;;;;;;19.21;100.00;100502.72;5072240;28;20370;-52
2022/07/20 02:50:17;;;;;;;16.38;7.68;;;;;;;19.13;100.00;100498.56;5057954;28;20055;-50
2022/07/20 02:52:43;;;;;;;16.85;8.32;;;;;;;19.12;100.00;100505.00;5048631;28;20073;-49
2022/07/20 02:55:10;;;;;;;17.25;7.88;;;;;;;19.11;100.00;100514.94;5060209;28;20528;-47
2022/07/20 02:57:35;;;;;;;11.48;6.63;;;;;;;19.15;100.00;100516.06;5054736;28;20040;-48
2022/07/20 03:00:01;;;;;;;18.63;8.50;;;;;;;19.16;100.00;100522.25;5068015;28;20082;-52
2022/07/20 03:02:27;;;;;;;11.70;6.95;;;;;;;19.14;100.00;100524.38;5067767;28;20031;-47
2022/07/20 03:04:52;;;;;;;10.27;5.43;;;;;;;19.17;100.00;100524.69;5043232;28;20472;-50
2022/07/20 03:07:17;;;;;;;12.05;6.35;;;;;;;19.19;100.00;100524.44;5061139;28;20040;-50
2022/07/20 03:09:43;;;;;;;17.40;7.15;;;;;;;19.17;100.00;100529.25;5058639;28;20037;-45
2022/07/20 03:12:09;;;;;;;20.80;8.30;;;;;;;19.16;100.00;100524.94;5072190;28;20031;-45
2022/07/20 03:14:35;;;;;;;11.95;6.03;;;;;;;19.19;100.00;100521.75;5070054;28;20023;-47
2022/07/20 03:17:00;;;;;;;11.85;7.00;;;;;;;19.22;100.00;100531.19;5059720;28;20028;-49
2022/07/20 03:19:25;;;;;;;17.83;7.13;;;;;;;19.22;100.00;100537.38;5058095;28;20021;-48
2022/07/20 03:21:51;;;;;;;12.23;5.47;;;;;;;19.21;100.00;100546.53;5058480;28;20029;-48
2022/07/20 03:24:16;;;;;;;14.25;7.07;;;;;;;19.23;100.00;100536.31;5057789;28;20451;-52
2022/07/20 03:26:42;;;;;;;16.55;6.65;;;;;;;19.20;100.00;100547.56;5077473;28;20026;-47
2022/07/20 03:29:07;;;;;;;17.02;8.02;;;;;;;19.22;100.00;100553.50;5059713;28;20517;-47
2022/07/20 03:31:33;;;;;;;11.80;7.05;;;;;;;19.24;100.00;100542.53;5041179;28;20051;-49
2022/07/20 03:33:58;;;;;;;10.70;6.65;;;;;;;19.22;100.00;100541.94;5060029;28;20107;-47
2022/07/20 03:36:23;;;;;;;10.75;5.60;;;;;;;19.22;100.00;100536.56;5053660;28;20040;-50
2022/07/20 03:38:49;;;;;;;11.00;5.78;;;;;;;19.20;100.00;100544.88;5057277;28;20081;-53
2022/07/20 03:41:14;;;;;;;11.85;7.05;;;;;;;19.16;100.00;100547.25;5060985;28;20029;-46
2022/07/20 03:43:40;;;;;;;15.13;7.40;;;;;;;19.14;100.00;100551.25;5046455;28;20032;-47
2022/07/20 03:46:05;;;;;;;13.35;6.00;;;;;;;19.13;100.00;100560.38;5060399;28;20029;-45
2022/07/20 03:48:31;;;;;;;12.52;8.48;;;;;;;19.16;100.00;100568.75;5071257;28;20038;-47
2022/07/20 03:50:56;;;;;;;11.27;6.07;;;;;;;19.17;100.00;100573.06;5054228;28;20338;-49
2022/07/20 03:53:21;;;;;;;22.33;6.82;;;;;;;19.16;100.00;100560.69;5056998;28;20028;-46
2022/07/20 03:55:47;;;;;;;16.38;7.88;;;;;;;19.12;100.00;100562.22;5059368;28;20029;-50
2022/07/20 03:58:12;;;;;;;14.40;6.30;;;;;;;19.10;100.00;100569.75;5052176;28;20454;-48
2022/07/20 04:00:37;;;;;;;13.98;7.28;;;;;;;19.07;100.00;100566.72;5053570;28;20465;-49
2022/07/20 04:03:03;;;;;;;11.07;5.57;;;;;;;19.07;100.00;100564.03;5055318;28;20482;-47
2022/07/20 04:05:28;;;;;;;13.80;6.22;;;;;;;19.09;100.00;100570.78;5058162;28;20040;-45
2022/07/20 04:07:54;;;;;;;15.43;7.65;;;;;;;19.07;100.00;100580.16;5061495;28;20535;-51
2022/07/20 04:10:19;;;;;;;14.63;7.50;;;;;;;19.04;100.00;100586.03;5066202;28;20029;-49
2022/07/20 04:12:45;;;;;;;10.68;5.95;;;;;;;19.09;100.00;100583.41;5074153;28;20444;-49
2022/07/20 04:15:11;;;;;;;15.30;7.20;;;;;;;19.11;100.00;100587.47;5056649;28;20435;-46
2022/07/20 04:17:39;;;;;;;8.48;5.93;;;;;;;19.14;100.00;100588.88;5042491;28;20131;-48
2022/07/20 04:20:05;;;;;;;12.75;6.32;;;;;;;19.14;100.00;100611.19;5063276;28;20369;-46
2022/07/20 04:22:31;;;;;;;13.82;7.90;;;;;;;19.13;100.00;100623.00;5062293;28;20032;-45
2022/07/20 04:24:56;;;;;;;14.35;6.95;;;;;;;19.13;100.00;100620.31;5067199;28;20127;-49
2022/07/20 04:27:22;;;;;;;19.48;7.40;;;;;;;19.17;100.00;100617.94;5057037;28;20033;-43
2022/07/20 04:29:47;;;;;;;17.67;8.80;;;;;;;19.19;100.00;100634.63;5060113;28;20088;-51
2022/07/20 04:32:12;;;;;;;13.60;7.80;;;;;;;19.19;100.00;100634.63;5057723;28;20466;-45
2022/07/20 04:34:38;;;;;;;15.15;7.35;;;;;;;19.18;100.00;100633.84;5057407;28;20020;-49
2022/07/20 04:37:03;;;;;;;12.93;6.93;;;;;;;19.21;100.00;100635.22;5056089;28;20033;-50
2022/07/20 04:39:29;;;;;;;14.05;6.95;;;;;;;19.22;100.00;100633.34;5057728;28;20028;-48
2022/07/20 04:41:54;;;;;;;12.48;7.35;;;;;;;19.21;100.00;100631.72;5036647;28;20033;-47
2022/07/20 04:44:21;;;;;;;11.27;6.68;;;;;;;19.23;100.00;100621.50;5054261;28;20055;-46
2022/07/20 04:46:46;;;;;;;16.73;8.13;;;;;;;19.27;100.00;100626.16;5055027;28;20344;-51
2022/07/20 04:49:12;;;;;;;15.43;7.75;;;;;;;19.29;100.00;100629.44;5056427;28;20087;-56
2022/07/20 04:51:37;;;;;;;12.48;8.85;;;;;;;19.30;100.00;100631.03;5058894;28;20025;-49
2022/07/20 04:54:03;;;;;;;13.13;6.65;;;;;;;19.23;100.00;100635.75;5053710;28;20021;-46
2022/07/20 04:56:29;;;;;;;13.82;7.40;;;;;;;19.23;100.00;100627.69;5058585;28;20070;-42
2022/07/20 04:58:55;;;;;;;12.85;6.53;;;;;;;19.26;100.00;100629.91;5069596;28;20055;-51
2022/07/20 05:01:22;;;;;;;17.92;7.57;;;;;;;19.29;100.00;100645.56;5054399;28;20036;-49
2022/07/20 05:03:48;;;;;;;14.73;8.30;;;;;;;19.34;100.00;100642.94;5062432;28;20420;-48
2022/07/20 05:06:14;;;;;;;9.70;6.78;;;;;;;19.39;100.00;100637.66;5060929;28;20037;-54
2022/07/20 05:08:39;;;;;;;11.93;5.70;;;;;;;19.40;100.00;100635.78;5051747;28;20070;-52
2022/07/20 05:11:05;;;;;;;17.40;7.68;;;;;;;19.31;100.00;100626.47;5052544;28;20115;-44
2022/07/20 05:13:31;;;;;;;13.10;5.75;;;;;;;19.21;100.00;100632.53;5057576;28;20043;-48
2022/07/20 05:15:56;;;;;;;13.88;6.65;;;;;;;19.21;100.00;100627.16;5055940;28;20043;-48
2022/07/20 05:18:21;;;;;;;11.10;6.85;;;;;;;19.23;100.00;100641.13;5050353;28;20068;-46
2022/07/20 05:20:47;;;;;;;9.43;6.03;;;;;;;19.21;100.00;100643.28;5043646;28;20091;-53
2022/07/20 05:23:12;;;;;;;7.53;5.70;;;;;;;19.22;100.00;100644.91;5072238;28;20028;-46
2022/07/20 05:25:41;;;;;;;10.55;6.25;;;;;;;19.27;100.00;100639.59;5067879;28;20108;-49
2022/07/20 05:28:07;;;;;;;10.02;5.72;;;;;;;19.30;100.00;100646.38;5066296;28;20442;-43
2022/07/20 05:30:33;;;;;;;12.30;6.47;;;;;;;19.25;100.00;100639.03;5054985;28;20032;-45
2022/07/20 05:32:58;;;;;;;10.07;5.38;;;;;;;19.27;100.00;100650.34;5062188;28;20123;-50
2022/07/20 05:35:24;;;;;;;9.18;7.00;;;;;;;19.29;100.00;100647.44;5062527;28;20044;-46
2022/07/20 05:37:49;;;;;;;11.35;6.28;;;;;;;19.36;100.00;100656.13;5056688;28;20111;-46
2022/07/20 05:40:14;;;;;;;13.30;6.90;;;;;;;19.38;100.00;100660.19;5065864;28;20033;-45
2022/07/20 05:42:40;;;;;;;6.20;5.18;;;;;;;19.44;100.00;100668.34;5063085;28;20028;-45
2022/07/20 05:45:07;;;;;;;16.60;6.60;;;;;;;19.41;100.00;100661.59;5054625;28;20357;-46
2022/07/20 05:47:32;;;;;;;11.88;5.70;;;;;;;19.46;100.00;100666.22;5060185;28;20512;-46
2022/07/20 05:49:58;;;;;;;10.23;5.90;;;;;;;19.44;100.00;100660.28;5059653;28;20095;-45
2022/07/20 05:52:23;;;;;;;14.05;6.53;;;;;;;19.44;100.00;100661.13;5067563;28;20225;-51
2022/07/20 05:54:49;;;;;;;6.28;4.80;;;;;;;19.46;100.00;100669.72;5058447;28;20024;-44
2022/07/20 05:57:15;;;;;;;6.78;5.15;;;;;;;19.49;100.00;100666.56;5058871;28;20029;-43
2022/07/20 05:59:41;;;;;;;10.35;5.53;;;;;;;19.55;100.00;100665.59;5061136;28;20033;-47
2022/07/20 06:02:07;;;;;;;7.50;5.85;;;;;;;19.58;100.00;100664.28;5063622;28;20029;-48
2022/07/20 06:04:33;;;;;;;13.77;6.35;;;;;;;19.55;100.00;100660.19;5057473;28;20028;-54
2022/07/20 06:06:58;;;;;;;11.35;5.97;;;;;;;19.61;100.00;100669.16;5068017;28;20466;-50
2022/07/20 06:09:23;;;;;;;7.15;4.88;;;;;;;19.63;100.00;100669.72;5056749;28;20047;-51
2022/07/20 06:11:49;;;;;;;6.90;5.25;;;;;;;19.67;100.00;100672.75;5055743;28;20339;-48
2022/07/20 06:14:14;;;;;;;9.23;5.45;;;;;;;19.69;100.00;100676.03;5062020;28;20083;-45
2022/07/20 06:16:40;;;;;;;10.50;5.50;;;;;;;19.71;100.00;100690.84;5076397;28;20445;-47
2022/07/20 06:19:05;;;;;;;17.88;6.50;;;;;;;19.69;100.00;100687.59;5069072;28;20025;-49
2022/07/20 06:21:30;;;;;;;9.75;4.82;;;;;;;19.73;100.00;100704.06;5060578;28;20028;-48
2022/07/20 06:23:56;;;;;;;7.93;4.32;;;;;;;19.71;100.00;100709.69;5065455;28;20515;-46
2022/07/20 06:26:22;;;;;;;10.80;5.00;;;;;;;19.78;100.00;100714.91;5069011;28;20052;-50
2022/07/20 06:28:48;;;;;;;9.80;5.03;;;;;;;19.82;100.00;100724.91;5059867;28;20039;-45
2022/07/20 06:31:13;;;;;;;5.20;4.55;;;;;;;19.88;100.00;100723.13;5058540;28;20040;-46
2022/07/20 06:33:39;;;;;;;12.50;4.85;;;;;;;19.87;100.00;100728.75;5062453;28;20126;-49
2022/07/20 06:36:04;;;;;;;6.68;4.30;;;;;;;19.89;100.00;100723.94;5061449;28;20208;-43
2022/07/20 06:38:30;;;;;;;4.88;3.17;;;;;;;19.91;100.00;100733.41;5059788;28;20143;-48
2022/07/20 06:40:55;;;;;;;4.00;3.22;;;;;;;19.90;100.00;100725.56;5058021;28;20465;-45
2022/07/20 06:43:23;;;;;;;4.93;2.95;;;;;;;19.88;100.00;100727.69;5052735;28;20036;-46
2022/07/20 06:45:49;;;;;;;4.30;3.75;;;;;;;19.89;100.00;100734.72;5037111;28;20032;-46
2022/07/20 06:48:16;;;;;;;5.20;3.75;;;;;;;19.90;100.00;100741.72;5056670;28;20037;-44
2022/07/20 06:50:41;;;;;;;8.10;3.45;;;;;;;19.96;100.00;100740.75;5035037;28;20111;-52
2022/07/20 06:53:07;;;;;;;8.02;3.00;;;;;;;20.01;100.00;100749.69;5059752;28;20185;-45
2022/07/20 06:55:32;;;;;;;5.05;3.20;;;;;;;20.09;100.00;100753.84;5048500;28;20028;-45
2022/07/20 06:57:58;;;;;;;6.47;3.67;;;;;;;20.15;100.00;100752.84;5058753;28;20036;-45
2022/07/20 07:00:26;;;;;;;5.55;3.10;;;;;;;20.12;100.00;100769.50;5052445;28;20038;-48
2022/07/20 07:02:51;;;;;;;2.95;2.60;;;;;;;20.22;100.00;100763.44;5029814;28;20032;-44
2022/07/20 07:05:17;;;;;;;6.05;3.80;;;;;;;20.38;100.00;100772.53;5056248;28;20032;-50
2022/07/20 07:07:43;;;;;;;4.22;2.60;;;;;;;20.49;100.00;100768.91;5056746;28;20465;-50
2022/07/20 07:10:08;;;;;;;5.90;2.80;;;;;;;20.53;100.00;100775.44;5039796;28;20115;-48
2022/07/20 07:12:34;;;;;;;4.65;3.15;;;;;;;20.80;100.00;100766.63;5058223;28;20092;-47
2022/07/20 07:15:00;;;;;;;3.92;3.28;;;;;;;21.05;100.00;100774.19;5066865;28;20099;-48
2022/07/20 07:17:27;;;;;;;7.47;2.80;;;;;;;21.10;100.00;100785.81;5057782;28;20052;-51
2022/07/20 07:19:53;;;;;;;10.13;4.75;;;;;;;21.09;100.00;100792.28;5043046;28;20115;-49
2022/07/20 07:22:18;;;;;;;4.35;2.65;;;;;;;21.07;100.00;100789.03;5063564;28;20474;-44
2022/07/20 07:24:44;;;;;;;4.00;2.55;;;;;;;21.26;100.00;100802.16;5067563;28;20436;-45
2022/07/20 07:27:09;;;;;;;6.60;3.30;;;;;;;21.11;100.00;100795.53;5077231;28;20036;-46
2022/07/20 07:29:35;;;;;;;6.03;3.53;;;;;;;20.97;100.00;100802.41;5056880;28;20025;-45
2022/07/20 07:32:01;;;;;;;5.93;4.25;;;;;;;20.96;100.00;100798.09;5049707;28;20034;-53
2022/07/20 07:34:28;;;;;;;8.90;4.03;;;;;;;20.85;100.00;100801.72;5072943;28;20115;-48
2022/07/20 07:36:54;;;;;;;10.50;4.30;;;;;;;20.77;100.00;100815.63;5066587;28;20123;-47
2022/07/20 07:39:20;;;;;;;6.18;3.40;;;;;;;20.73;100.00;100814.50;5047169;28;20042;-47
2022/07/20 07:41:45;;;;;;;10.07;4.40;;;;;;;20.69;100.00;100816.88;5054849;28;20033;-44
2022/07/20 07:44:11;;;;;;;7.72;4.25;;;;;;;20.72;100.00;100818.25;5062806;28;20043;-50
2022/07/20 07:46:37;;;;;;;9.85;4.50;;;;;;;20.73;100.00;100814.50;5029909;28;20129;-48
2022/07/20 07:49:03;;;;;;;7.65;3.38;;;;;;;20.64;100.00;100816.81;5059049;28;20037;-47
2022/07/20 07:51:29;;;;;;;5.72;3.47;;;;;;;20.85;100.00;100820.56;5056274;28;20087;-45
2022/07/20 07:53:55;;;;;;;4.60;3.22;;;;;;;21.06;100.00;100817.03;5057112;28;20482;-50
2022/07/20 07:56:21;;;;;;;10.40;4.85;;;;;;;21.06;100.00;100817.03;5033159;28;20041;-44
2022/07/20 07:58:47;;;;;;;7.70;4.00;;;;;;;21.21;100.00;100810.19;5040296;28;20028;-46
2022/07/20 08:01:13;;;;;;;8.85;4.90;;;;;;;21.55;100.00;100800.03;5028697;28;20037;-46
2022/07/20 08:03:38;;;;;;;6.00;4.53;;;;;;;21.78;100.00;100805.09;5037077;28;20025;-50
2022/07/20 08:06:04;;;;;;;4.40;3.78;;;;;;;21.69;100.00;100816.63;5022887;28;20044;-47
2022/07/20 08:08:30;;;;;;;6.15;4.47;;;;;;;21.59;100.00;100817.34;5043168;28;20680;-46
2022/07/20 08:10:56;;;;;;;4.22;3.10;;;;;;;21.50;100.00;100818.88;5052117;28;20111;-48
2022/07/20 08:13:22;;;;;;;8.57;4.35;;;;;;;21.46;100.00;100823.16;5022035;28;20555;-46
2022/07/20 08:15:48;;;;;;;6.50;4.95;;;;;;;21.33;100.00;100816.25;5027856;28;20028;-55
2022/07/20 08:18:13;;;;;;;4.68;3.03;;;;;;;21.15;100.00;100822.00;5040383;28;20047;-50
2022/07/20 08:20:38;;;;;;;8.48;4.40;;;;;;;21.01;100.00;100822.38;5048079;28;20606;-54
2022/07/20 08:23:04;;;;;;;6.68;3.85;;;;;;;20.87;100.00;100821.94;5048082;28;20064;-52
2022/07/20 08:25:30;;;;;;;5.82;3.58;;;;;;;20.93;100.00;100825.53;5039881;28;20067;-46
2022/07/20 08:28:07;;;;;;;10.40;4.07;;;;;;;20.92;100.00;100822.00;5048069;28;20044;-45
2022/07/20 08:30:32;;;;;;;9.68;4.82;;;;;;;21.09;100.00;100808.47;5047237;28;20614;-50
2022/07/20 08:32:58;;;;;;;5.35;3.72;;;;;;;21.51;100.00;100810.53;5053751;28;20029;-48
2022/07/20 08:35:23;;;;;;;10.02;5.53;;;;;;;21.83;100.00;100808.91;5053582;28;20352;-51
2022/07/20 08:37:48;;;;;;;5.82;4.30;;;;;;;21.93;100.00;100807.09;5043810;28;20052;-51
2022/07/20 08:40:14;;;;;;;5.13;4.25;;;;;;;22.27;100.00;100817.63;5047601;28;20482;-50
2022/07/20 08:42:40;;;;;;;5.53;3.80;;;;;;;22.57;100.00;100822.38;5041659;28;20034;-53
2022/07/20 08:45:08;;;;;;;8.00;4.45;;;;;;;22.47;100.00;100806.13;5052227;28;20082;-55
2022/07/20 08:47:39;;;;;;;8.30;3.65;;;;;;;22.15;100.00;100803.47;5053338;28;20036;-45
2022/07/20 08:50:06;;;;;;;10.95;4.22;;;;;;;22.09;100.00;100797.22;5046175;28;20033;-48
2022/07/20 08:52:31;;;;;;;6.00;3.92;;;;;;;21.94;100.00;100797.13;5033379;28;20036;-47
2022/07/20 08:54:57;;;;;;;7.75;3.92;;;;;;;21.85;100.00;100794.09;5050368;28;20554;-49
2022/07/20 08:57:22;;;;;;;4.43;3.28;;;;;;;21.89;100.00;100795.22;5055101;28;20044;-51
2022/07/20 08:59:48;;;;;;;6.80;3.70;;;;;;;21.90;100.00;100791.44;5057493;28;20424;-49
2022/07/20 09:02:14;;;;;;;6.72;3.60;;;;;;;21.74;100.00;100787.81;5057565;28;20067;-53
2022/07/20 09:05:01;;;;;;;7.57;3.92;;;;;;;21.67;100.00;100794.50;5054977;28;20460;-55
2022/07/20 09:07:43;;;;;;;7.40;3.40;;;;;;;21.53;100.00;100783.31;5054121;28;20440;-51
2022/07/20 09:10:12;;;;;;;3.80;3.10;;;;;;;21.77;100.00;100789.16;5037676;28;20815;-50
2022/07/20 09:13:01;;;;;;;13.23;4.15;;;;;;;21.99;100.00;100784.50;5057507;28;20024;-53
2022/07/20 09:15:29;;;;;;;7.18;3.90;;;;;;;22.07;100.00;100779.66;5048139;28;20056;-51
2022/07/20 09:18:05;;;;;;;3.10;2.22;;;;;;;22.00;100.00;100780.69;5051368;28;20418;-46
2022/07/20 09:20:32;;;;;;;4.78;2.72;;;;;;;21.83;100.00;100788.13;5057595;28;20459;-57
2022/07/20 09:23:06;;;;;;;3.88;2.78;;;;;;;21.83;100.00;100788.13;5058835;28;20032;-48
2022/07/20 09:25:32;;;;;;;6.65;3.38;;;;;;;21.91;100.00;100790.34;5040084;28;20072;-48
2022/07/20 09:27:58;;;;;;;5.45;3.05;;;;;;;22.00;100.00;100796.09;5043304;28;20119;-48
2022/07/20 09:30:23;;;;;;;6.15;3.65;;;;;;;21.87;100.00;100786.56;5020266;28;20033;-50
2022/07/20 09:32:51;;;;;;;4.85;2.42;;;;;;;21.99;100.00;100768.28;5054624;28;20083;-52
2022/07/20 09:35:18;;;;;;;4.20;3.03;;;;;;;22.14;100.00;100782.94;5056791;28;20048;-54
2022/07/20 09:37:44;;;;;;;8.20;3.03;;;;;;;22.60;100.00;100784.03;5052745;28;20033;-53
2022/07/20 09:40:10;;;;;;;7.15;2.80;;;;;;;22.79;100.00;100772.75;5050307;28;20566;-47
2022/07/20 09:42:40;;;;;;;3.88;2.83;;;;;;;23.17;100.00;100776.94;5049100;28;20373;-49
2022/07/20 09:45:28;;;;;;;5.47;3.72;;;;;;;23.08;100.00;100767.75;5048646;28;20036;-53
2022/07/20 09:48:05;;;;;;;2.83;2.58;;;;;;;22.69;100.00;100768.13;5048967;28;20597;-48
2022/07/20 09:50:32;;;;;;;3.35;3.03;;;;;;;22.41;100.00;100772.88;5026332;28;20098;-48
2022/07/20 09:52:58;;;;;;;6.43;4.32;;;;;;;22.56;100.00;100769.44;5056164;28;20214;-48
2022/07/20 09:55:25;;;;;;;4.97;3.35;;;;;;;22.67;100.00;100775.69;5051688;28;20020;-50
2022/07/20 09:57:51;;;;;;;7.03;3.70;;;;;;;22.58;100.00;100772.66;5035372;28;20127;-48
2022/07/20 10:00:19;;;;;;;12.15;3.45;;;;;;;22.65;100.00;100767.84;5048866;28;20062;-49
2022/07/20 10:02:50;;;;;;;5.10;3.08;;;;;;;22.76;100.00;100771.38;5040189;28;20389;-48
2022/07/20 10:05:19;;;;;;;3.60;3.30;;;;;;;23.12;100.00;100766.09;5028480;28;20036;-53
2022/07/20 10:07:45;;;;;;;8.02;2.92;;;;;;;23.60;100.00;100753.16;5055011;28;20041;-45
2022/07/20 10:10:11;;;;;;;2.97;2.75;;;;;;;24.08;100.00;100759.06;5044897;28;20028;-47
2022/07/20 10:12:38;;;;;;;6.15;3.50;;;;;;;24.46;100.00;100751.41;5053301;28;20063;-53
2022/07/20 10:15:11;;;;;;;7.13;3.72;;;;;;;24.45;100.00;100760.63;5037324;28;20485;-51
2022/07/20 10:17:38;;;;;;;5.15;2.80;;;;;;;24.34;100.00;100772.56;5038519;28;20467;-48
2022/07/20 10:20:07;;;;;;;3.78;3.22;;;;;;;24.48;100.00;100772.81;5042543;28;20032;-55
2022/07/20 10:22:33;;;;;;;3.70;2.80;;;;;;;24.58;100.00;100764.66;5049964;28;20033;-50
2022/07/20 10:25:18;;;;;;;4.50;2.50;;;;;;;24.48;100.00;100775.53;5048858;28;20474;-48
2022/07/20 10:27:44;;;;;;;9.73;3.22;;;;;;;24.26;100.00;100783.97;5050173;28;20028;-53
2022/07/20 10:30:18;;;;;;;4.43;2.88;;;;;;;24.02;100.00;100776.44;5044307;28;20043;-48
2022/07/20 10:32:58;;;;;;;3.33;3.03;;;;;;;24.33;100.00;100779.88;5042053;28;20044;-48
2022/07/20 10:35:31;;;;;;;3.40;3.00;;;;;;;24.47;100.00;100771.19;5024925;28;20135;-51
2022/07/20 10:37:57;;;;;;;4.13;2.83;;;;;;;24.49;100.00;100769.00;5045858;28;20303;-53
2022/07/20 10:40:28;;;;;;;5.60;2.08;;;;;;;24.56;100.00;100764.13;5045248;28;20082;-49
2022/07/20 10:43:06;;;;;;;2.53;2.35;;;;;;;24.42;100.00;100766.59;5042182;28;20024;-45
2022/07/20 10:45:33;;;;;;;5.60;2.80;;;;;;;24.42;100.00;100785.56;5045494;28;20637;-53
2022/07/20 10:48:16;;;;;;;6.53;3.05;;;;;;;24.50;100.00;100767.91;5050637;28;20020;-46
2022/07/20 10:50:50;;;;;;;3.97;3.58;;;;;;;24.47;100.00;100772.00;5050162;28;20029;-51
2022/07/20 10:53:15;;;;;;;7.45;2.85;;;;;;;24.55;100.00;100762.47;5047983;28;20437;-56
2022/07/20 10:55:50;;;;;;;4.88;2.72;;;;;;;24.35;100.00;100768.78;5037818;28;20036;-51
2022/07/20 10:58:31;;;;;;;5.50;2.70;;;;;;;24.45;100.00;100773.38;5045911;28;20431;-55
2022/07/20 11:01:02;;;;;;;2.78;2.22;;;;;;;24.83;100.00;100774.53;5046739;28;20032;-55
2022/07/20 11:03:29;;;;;;;;;;;;;;;24.71;100.00;100766.75;5051603;28;20385;-50
2022/07/20 11:06:15;;;;;;;8.35;2.72;;;;;;;24.53;100.00;100775.50;5053178;28;19946;-54
2022/07/20 11:08:48;;;;;;;2.55;2.35;;;;;;;24.58;100.00;100773.59;5050708;28;20036;-50
2022/07/20 11:11:15;;;;;;;6.43;2.30;;;;;;;24.44;100.00;100783.34;5055361;28;20119;-48
2022/07/20 11:13:41;;;;;;;8.88;2.95;;;;;;;24.32;100.00;100780.16;5027336;28;20720;-54
2022/07/20 11:16:07;;;;;;;4.28;2.38;;;;;;;24.03;100.00;100775.34;5053287;28;20460;-45